Portada
METAR-TAF:

METAR-TAF

Aeropuertos :

Base Aérea de Almagro

Almagro, España

latitud: 38-57-11N, longitud: 3-44-29W, altitud: 629 m

Observación

El informe se hizo hace 33 minutos, a las 09:30 UTC
Viento 8 kt del oeste, variando entre sur-suroeste y noroeste
Temperatura 16°C
Humedad 48%
Presión 1019 hPa
Visibilidad 10 km o más
sin nubes por debajo de 1500 m y sin presencia de cumulonimbus.

METAR: LEAO 130930Z 26008KT 200V310 CAVOK 16/05 Q1019

Hora: 12:03 (10:03 UTC)

Pronóstico

El informe se hizo hace 2 horas y 3 minutos, a las 08:00 UTC
Pronóstico válido del 13 a las 09 UTC al 14 a las 09 UTC
Viento 8 kt del oeste
Visibilidad 10 km o más
sin nubes por debajo de 1500 m y sin presencia de cumulonimbus.
Probabilidad 40% :
Temporalmente
del 13 a las 15 UTC al 13 a las 18 UTC
Viento 15 kt del oeste con ráfagas de 25 kt

TAF: LEAO 130800Z 1309/1409 27008KT CAVOK TX24/1315Z TN08/1405Z PROB40 TEMPO 1315/1318 27015G25KT

Observaciones y pronósticos meteorológicos de más de 4000 aeropuertos (mensajes METAR y TAF).

Los puntos amarillos y rojos representan las estaciones disponibles.

Ponga el ratón en el punto deseado para ver el nombre de la estación.

Haga clic para ver las observaciones y los pronósticos meteorológicos.

Para cambiar el mapa : haga clic en los botones verdes con una cruz de color negro para hacer un zoom, en el botón verde con un guión para alejar o en las flechas verdes para mapas adyacentes.


METAR-TAF: